createdAt,value
2019-04-21T00:00:56.860Z,47.80
2019-04-21T00:03:28.762Z,47.80
2019-04-21T00:06:12.071Z,47.90
2019-04-21T00:08:44.152Z,47.60
2019-04-21T00:11:15.289Z,47.50
2019-04-21T00:13:38.136Z,47.80
2019-04-21T00:16:00.344Z,47.60
2019-04-21T00:19:02.332Z,47.80
2019-04-21T00:21:34.459Z,47.60
2019-04-21T00:24:24.855Z,47.70
2019-04-21T00:27:03.724Z,48.10
2019-04-21T00:29:38.538Z,50.70
2019-04-21T00:31:57.919Z,50.40
2019-04-21T00:34:15.447Z,51.50
2019-04-21T00:36:56.149Z,51.00
2019-04-21T00:39:43.625Z,52.50
2019-04-21T00:42:05.166Z,47.80
2019-04-21T00:44:28.426Z,48.10
2019-04-21T00:47:03.069Z,48.30
2019-04-21T00:49:35.965Z,48.60
2019-04-21T00:52:46.051Z,48.40
2019-04-21T00:55:20.189Z,50.20
2019-04-21T00:57:45.317Z,50.10
2019-04-21T01:00:16.114Z,48.60
2019-04-21T01:02:46.860Z,48.50
2019-04-21T01:05:18.589Z,48.60
2019-04-21T01:07:42.338Z,51.10
2019-04-21T01:10:05.294Z,48.80
2019-04-21T01:12:41.756Z,48.80
2019-04-21T01:15:24.630Z,49.00
2019-04-21T01:20:17.558Z,49.70
2019-04-21T01:22:45.448Z,50.40
2019-04-21T01:25:22.683Z,50.50
2019-04-21T01:28:01.248Z,50.70
2019-04-21T01:30:34.585Z,50.70
2019-04-21T01:33:07.581Z,50.80
2019-04-21T01:35:42.596Z,50.80
2019-04-21T01:38:19.516Z,50.90
2019-04-21T01:40:42.857Z,51.20
2019-04-21T01:43:07.851Z,51.00
2019-04-21T01:45:41.655Z,51.30
2019-04-21T01:48:06.623Z,51.40
2019-04-21T01:50:41.190Z,51.50
2019-04-21T01:53:23.928Z,51.70
2019-04-21T01:56:07.865Z,51.90
2019-04-21T01:58:32.249Z,51.70
2019-04-21T02:01:08.498Z,51.90
2019-04-21T02:06:24.186Z,52.00
2019-04-21T02:08:49.430Z,52.00
2019-04-21T02:11:26.427Z,52.00
2019-04-21T02:13:58.928Z,52.10
2019-04-21T02:16:23.096Z,52.20
2019-04-21T02:18:52.988Z,52.40
2019-04-21T02:21:19.075Z,52.60
2019-04-21T02:23:58.726Z,52.70
2019-04-21T02:26:22.646Z,52.80
2019-04-21T02:31:40.357Z,53.00
2019-04-21T02:39:18.039Z,53.60
2019-04-21T02:41:41.736Z,53.90
2019-04-21T02:44:12.441Z,54.00
2019-04-21T02:46:38.553Z,54.20
2019-04-21T02:56:48.173Z,54.90
2019-04-21T02:59:15.080Z,55.00
2019-04-21T03:01:56.651Z,55.30
2019-04-21T03:04:55.365Z,55.50
2019-04-21T03:07:17.759Z,55.90
2019-04-21T03:09:53.100Z,56.00
2019-04-21T03:12:22.620Z,56.10
2019-04-21T03:17:41.752Z,56.10
2019-04-21T03:22:24.919Z,57.30
2019-04-21T03:27:46.556Z,57.90
2019-04-21T03:30:01.004Z,58.30
2019-04-21T03:37:49.693Z,59.30
2019-04-21T03:40:05.265Z,59.90
2019-04-21T03:45:03.666Z,60.70
2019-04-21T03:52:46.029Z,62.40
2019-04-21T04:00:44.841Z,64.80
2019-04-21T04:03:46.986Z,66.60
2019-04-21T04:06:09.605Z,66.60
2019-04-21T04:09:14.431Z,67.70
2019-04-21T04:16:39.434Z,69.80
2019-04-21T04:21:37.222Z,71.10
2019-04-21T04:24:04.035Z,72.00
2019-04-21T04:26:39.783Z,72.90
2019-04-21T04:29:12.416Z,73.80
2019-04-21T04:34:18.608Z,75.20
2019-04-21T04:39:45.659Z,75.80
2019-04-21T04:42:27.087Z,76.30
2019-04-21T04:47:18.466Z,77.00
2019-04-21T04:52:31.235Z,77.70
2019-04-21T04:54:59.364Z,77.90
2019-04-21T04:57:51.276Z,78.10
2019-04-21T05:00:00.777Z,78.30
2019-04-21T05:10:04.262Z,78.00
2019-04-21T05:38:11.688Z,76.60
2019-04-21T05:45:10.592Z,75.70
2019-04-21T05:47:26.786Z,74.90
2019-04-21T05:49:55.979Z,74.50
2019-04-21T05:52:27.544Z,74.30
2019-04-21T05:55:06.358Z,74.00
2019-04-21T05:57:33.511Z,73.60
2019-04-21T05:59:59.455Z,73.40
2019-04-21T06:02:37.757Z,72.80
2019-04-21T06:07:34.753Z,72.20
2019-04-21T06:10:12.316Z,72.00
2019-04-21T06:12:44.944Z,71.00
2019-04-21T06:15:47.306Z,70.20
2019-04-21T06:21:10.810Z,69.40
2019-04-21T06:24:05.216Z,69.10
2019-04-21T06:26:27.990Z,68.80
2019-04-21T06:28:48.568Z,68.50
2019-04-21T06:33:44.998Z,68.30
2019-04-21T06:41:32.573Z,67.40
2019-04-21T06:46:39.320Z,66.80
2019-04-21T06:51:32.285Z,66.00
2019-04-21T06:54:03.431Z,65.70
2019-04-21T06:56:37.985Z,66.30
2019-04-21T06:59:00.703Z,65.20
2019-04-21T07:01:38.986Z,65.10
2019-04-21T07:04:11.209Z,64.80
2019-04-21T07:06:35.642Z,64.60
2019-04-21T07:09:15.945Z,64.20
2019-04-21T07:11:34.953Z,64.10
2019-04-21T07:14:22.561Z,63.90
2019-04-21T07:16:38.654Z,64.00
2019-04-21T07:19:18.518Z,63.50
2019-04-21T07:21:43.476Z,63.90
2019-04-21T07:24:13.858Z,63.20
2019-04-21T07:26:36.844Z,62.80
2019-04-21T07:29:08.072Z,62.20
2019-04-21T07:31:47.015Z,62.20
2019-04-21T07:34:16.033Z,61.80
2019-04-21T07:39:08.371Z,61.50
2019-04-21T07:41:36.704Z,61.10
2019-04-21T07:44:06.254Z,61.00
2019-04-21T07:46:33.694Z,60.60
2019-04-21T07:49:12.798Z,60.10
2019-04-21T07:51:59.216Z,59.80
2019-04-21T07:54:34.144Z,60.20
2019-04-21T07:56:43.923Z,59.20
2019-04-21T07:59:39.478Z,59.20
2019-04-21T08:02:02.519Z,59.10
2019-04-21T08:04:45.504Z,58.40
2019-04-21T08:06:58.198Z,58.40
2019-04-21T08:09:26.163Z,57.90
2019-04-21T08:11:54.743Z,57.60
2019-04-21T08:14:31.228Z,57.10
2019-04-21T08:17:02.826Z,56.70
2019-04-21T08:19:31.180Z,56.60
2019-04-21T08:22:09.486Z,55.30
2019-04-21T08:24:35.117Z,55.60
2019-04-21T08:27:05.123Z,54.40
2019-04-21T08:32:11.929Z,50.00
2019-04-21T08:37:05.498Z,45.10
2019-04-21T08:39:37.947Z,43.80
2019-04-21T08:42:04.455Z,43.00
2019-04-21T08:44:40.278Z,41.90
2019-04-21T08:47:06.074Z,40.70
2019-04-21T08:49:44.277Z,40.50
2019-04-21T08:52:13.817Z,39.30
2019-04-21T08:54:43.524Z,38.70
2019-04-21T08:57:47.615Z,38.00
2019-04-21T09:02:58.996Z,36.30
2019-04-21T09:05:27.746Z,37.30
2019-04-21T09:08:00.411Z,37.20
2019-04-21T09:10:33.490Z,38.00
2019-04-21T09:12:59.105Z,37.70
2019-04-21T09:15:31.074Z,36.50
2019-04-21T09:17:53.422Z,36.10
2019-04-21T09:20:32.855Z,36.40
2019-04-21T09:23:00.466Z,36.70
2019-04-21T09:25:40.799Z,35.80
2019-04-21T09:28:02.365Z,35.00
2019-04-21T09:30:15.244Z,35.10
2019-04-21T09:32:44.574Z,34.00
2019-04-21T09:37:51.335Z,33.90
2019-04-21T09:40:16.895Z,32.80
2019-04-21T09:42:54.204Z,32.80
2019-04-21T09:45:17.613Z,33.40
2019-04-21T09:50:17.369Z,70.20
2019-04-21T09:52:52.848Z,32.30
2019-04-21T09:57:53.589Z,31.30
2019-04-21T10:00:23.172Z,31.30
2019-04-21T10:02:55.382Z,31.00
2019-04-21T10:05:21.432Z,30.80
2019-04-21T10:07:50.777Z,31.20
2019-04-21T10:10:20.119Z,30.70
2019-04-21T10:12:49.932Z,30.00
2019-04-21T10:15:23.264Z,30.20
2019-04-21T10:17:56.178Z,30.00
2019-04-21T10:20:26.359Z,31.20
2019-04-21T10:22:55.394Z,30.50
2019-04-21T10:25:25.057Z,30.20
2019-04-21T10:27:54.925Z,30.50
2019-04-21T10:30:24.594Z,30.60
2019-04-21T10:32:54.327Z,30.80
2019-04-21T10:35:31.109Z,30.50
2019-04-21T10:38:13.110Z,30.60
2019-04-21T10:40:33.820Z,31.70
2019-04-21T10:43:01.753Z,31.00
2019-04-21T10:45:30.967Z,31.10
2019-04-21T10:48:00.933Z,30.70
2019-04-21T10:50:31.292Z,30.80
2019-04-21T10:53:07.014Z,30.10
2019-04-21T10:55:53.539Z,30.10
2019-04-21T10:58:08.959Z,30.00
2019-04-21T11:00:39.747Z,29.90
2019-04-21T11:03:26.914Z,30.30
2019-04-21T11:05:56.718Z,30.40
2019-04-21T11:08:33.735Z,30.80
2019-04-21T11:10:56.446Z,30.70
2019-04-21T11:13:26.403Z,30.50
2019-04-21T11:15:55.362Z,30.00
2019-04-21T11:18:24.319Z,30.60
2019-04-21T11:20:53.214Z,30.60
2019-04-21T11:23:22.501Z,30.80
2019-04-21T11:25:51.738Z,30.90
2019-04-21T11:28:20.736Z,31.70
2019-04-21T11:30:50.991Z,30.80
2019-04-21T11:33:21.299Z,30.60
2019-04-21T11:35:51.242Z,30.00
2019-04-21T11:38:29.989Z,30.20
2019-04-21T11:40:58.028Z,30.00
2019-04-21T11:43:26.985Z,29.80
2019-04-21T11:45:55.836Z,29.90
2019-04-21T11:48:30.277Z,30.00
2019-04-21T11:50:59.464Z,29.60
2019-04-21T11:53:28.724Z,29.20
2019-04-21T11:55:58.835Z,29.60
2019-04-21T11:58:28.213Z,29.30
2019-04-21T12:00:59.989Z,28.80
2019-04-21T12:03:29.587Z,28.30
2019-04-21T12:05:59.576Z,28.40
2019-04-21T12:08:36.206Z,28.40
2019-04-21T12:10:59.739Z,28.50
2019-04-21T12:13:30.008Z,28.70
2019-04-21T12:15:59.173Z,28.60
2019-04-21T12:18:30.016Z,28.30
2019-04-21T12:20:58.625Z,29.00
2019-04-21T12:23:27.543Z,27.90
2019-04-21T12:25:56.990Z,28.00
2019-04-21T12:28:26.078Z,28.00
2019-04-21T12:30:55.959Z,28.00
2019-04-21T12:33:54.019Z,28.00
2019-04-21T12:36:24.154Z,27.90
2019-04-21T12:38:57.374Z,28.10
2019-04-21T12:41:24.617Z,28.30
2019-04-21T12:43:54.865Z,27.60
2019-04-21T12:46:23.883Z,27.70
2019-04-21T12:48:53.834Z,27.50
2019-04-21T12:51:23.953Z,28.50
2019-04-21T12:53:54.045Z,27.70
2019-04-21T12:56:23.425Z,27.60
2019-04-21T12:58:53.315Z,28.90
2019-04-21T13:01:23.171Z,28.50
2019-04-21T13:03:52.193Z,27.50
2019-04-21T13:06:21.360Z,27.60
2019-04-21T13:08:57.732Z,27.70
2019-04-21T13:11:21.376Z,27.80
2019-04-21T13:13:50.404Z,27.30
2019-04-21T13:24:19.969Z,26.70
2019-04-21T13:27:15.694Z,27.50
2019-04-21T13:30:10.930Z,28.00
2019-04-21T13:32:43.055Z,27.90
2019-04-21T13:50:17.244Z,28.50
2019-04-21T14:00:03.669Z,27.60
2019-04-21T14:05:50.513Z,28.20
2019-04-21T14:49:55.215Z,29.50
2019-04-21T14:50:58.064Z,29.40
2019-04-21T15:19:31.070Z,29.90
2019-04-21T15:25:03.862Z,29.80
2019-04-21T15:53:23.738Z,29.90
2019-04-21T16:07:58.241Z,30.00
2019-04-21T16:12:11.591Z,30.40
2019-04-21T16:14:40.770Z,30.10
2019-04-21T16:20:32.349Z,30.20
2019-04-21T16:23:02.261Z,30.80
2019-04-21T16:25:32.879Z,30.70
2019-04-21T16:28:01.929Z,30.80
2019-04-21T16:30:31.221Z,30.90
2019-04-21T16:33:00.151Z,31.00
2019-04-21T16:35:29.586Z,31.00
2019-04-21T16:38:00.790Z,31.40
2019-04-21T16:40:41.589Z,31.60
2019-04-21T16:43:00.408Z,31.50
2019-04-21T16:45:30.552Z,31.60
2019-04-21T16:48:01.070Z,31.70
2019-04-21T16:50:30.289Z,32.00
2019-04-21T16:53:16.512Z,32.30
2019-04-21T16:56:11.004Z,32.10
2019-04-21T16:58:43.689Z,32.20
2019-04-21T17:01:20.004Z,32.40
2019-04-21T17:03:48.611Z,32.40
2019-04-21T17:06:17.542Z,32.40
2019-04-21T17:08:47.161Z,32.50
2019-04-21T17:11:22.766Z,32.80
2019-04-21T17:13:47.416Z,32.70
2019-04-21T17:16:43.491Z,32.90
2019-04-21T17:18:58.737Z,33.20
2019-04-21T17:21:19.074Z,33.10
2019-04-21T17:23:48.430Z,33.10
2019-04-21T17:26:17.424Z,33.40
2019-04-21T17:28:46.731Z,33.50
2019-04-21T17:31:16.192Z,33.60
2019-04-21T17:33:47.119Z,33.40
2019-04-21T17:36:16.775Z,33.80
2019-04-21T17:38:45.946Z,34.10
2019-04-21T17:41:25.967Z,33.90
2019-04-21T17:43:46.022Z,34.00
2019-04-21T17:46:22.968Z,34.30
2019-04-21T17:48:47.136Z,34.50
2019-04-21T17:51:27.700Z,34.70
2019-04-21T17:54:02.699Z,34.90
2019-04-21T17:56:59.499Z,35.80
2019-04-21T17:59:35.860Z,37.10
2019-04-21T18:01:57.177Z,38.10
2019-04-21T18:04:28.855Z,37.20
2019-04-21T18:07:08.425Z,36.40
2019-04-21T18:09:49.824Z,36.50
2019-04-21T18:12:12.225Z,38.10
2019-04-21T18:14:28.500Z,38.60
2019-04-21T18:16:58.307Z,38.70
2019-04-21T18:19:31.038Z,39.80
2019-04-21T18:22:09.485Z,39.60
2019-04-21T18:24:48.839Z,36.10
2019-04-21T18:27:13.616Z,36.20
2019-04-21T18:29:44.501Z,36.30
2019-04-21T18:32:17.650Z,36.30
2019-04-21T18:35:19.207Z,36.40
2019-04-21T18:38:04.467Z,36.70
2019-04-21T18:40:31.922Z,36.90
2019-04-21T18:43:43.740Z,37.10
2019-04-21T18:46:06.906Z,37.30
2019-04-21T18:48:31.567Z,37.50
2019-04-21T18:51:36.647Z,37.80
2019-04-21T18:54:20.906Z,37.80
2019-04-21T18:56:29.792Z,38.00
2019-04-21T18:59:00.473Z,38.20
2019-04-21T19:01:33.276Z,38.40
2019-04-21T19:04:04.254Z,38.50
2019-04-21T19:06:47.034Z,38.60
2019-04-21T19:09:14.230Z,39.00
2019-04-21T19:11:56.259Z,39.20
2019-04-21T19:22:03.142Z,39.60
2019-04-21T19:27:19.231Z,39.80
2019-04-21T19:29:52.123Z,40.00
2019-04-21T19:32:04.023Z,40.20
2019-04-21T19:34:22.408Z,40.40
2019-04-21T19:36:51.200Z,40.50
2019-04-21T19:39:34.940Z,40.70
2019-04-21T19:42:00.550Z,40.90
2019-04-21T19:44:38.235Z,41.10
2019-04-21T19:47:03.602Z,41.10
2019-04-21T19:49:40.069Z,43.20
2019-04-21T20:02:16.503Z,50.20
2019-04-21T20:05:15.379Z,53.20
2019-04-21T20:11:00.575Z,42.10
2019-04-21T20:13:42.100Z,43.00
2019-04-21T20:16:03.847Z,43.50
2019-04-21T20:18:32.575Z,44.10
2019-04-21T20:20:54.322Z,45.00
2019-04-21T20:23:44.690Z,45.30
2019-04-21T20:26:37.680Z,45.80
2019-04-21T20:29:54.270Z,45.80
2019-04-21T20:32:31.638Z,45.90
2019-04-21T20:35:17.032Z,46.20
2019-04-21T20:37:55.245Z,46.80
2019-04-21T20:40:39.978Z,47.50
2019-04-21T20:43:37.014Z,48.60
2019-04-21T20:45:52.317Z,49.90
2019-04-21T20:48:15.363Z,51.00
2019-04-21T20:50:49.611Z,51.50
2019-04-21T20:53:19.837Z,51.80
2019-04-21T20:55:57.469Z,52.00
2019-04-21T20:58:24.044Z,52.30
2019-04-21T21:01:09.359Z,52.40
2019-04-21T21:03:28.878Z,52.50
2019-04-21T21:05:52.994Z,52.80
2019-04-21T21:08:34.574Z,52.70
2019-04-21T21:10:58.674Z,52.30
2019-04-21T21:13:33.402Z,52.20
2019-04-21T21:16:12.009Z,52.40
2019-04-21T21:21:09.566Z,52.10
2019-04-21T21:23:38.772Z,52.00
2019-04-21T21:26:09.490Z,52.00
2019-04-21T21:28:32.620Z,53.40
2019-04-21T21:31:11.496Z,53.20
2019-04-21T21:33:35.559Z,52.80
2019-04-21T21:36:05.527Z,52.80
2019-04-21T21:38:40.593Z,52.90
2019-04-21T21:40:59.916Z,53.70
2019-04-21T21:43:23.644Z,53.80
2019-04-21T21:45:56.151Z,53.50
2019-04-21T21:48:38.300Z,53.60
2019-04-21T21:51:04.385Z,54.40
2019-04-21T21:53:28.534Z,53.90
2019-04-21T21:55:54.311Z,53.80
2019-04-21T21:58:27.457Z,52.40
2019-04-21T22:00:58.981Z,51.70
2019-04-21T22:03:31.822Z,51.90
2019-04-21T22:06:03.586Z,51.90
2019-04-21T22:43:04.983Z,43.10
2019-04-21T22:53:02.071Z,43.40
2019-04-21T23:23:15.132Z,44.40
2019-04-21T23:25:40.706Z,44.50
2019-04-21T23:28:11.608Z,44.60
2019-04-21T23:30:49.801Z,44.80
2019-04-21T23:33:02.436Z,44.80
2019-04-21T23:35:34.535Z,45.00
2019-04-21T23:38:03.194Z,45.00
2019-04-21T23:40:30.802Z,45.00
2019-04-21T23:43:00.141Z,45.20
2019-04-21T23:45:34.046Z,45.30
2019-04-21T23:48:15.629Z,45.40
2019-04-21T23:53:01.617Z,45.00
2019-04-21T23:55:31.495Z,45.60
2019-04-21T23:58:07.099Z,45.50
